createdAt,value
2018-11-25T00:00:33.119Z,100302.00
2018-11-25T00:03:02.646Z,100300.00
2018-11-25T00:05:32.048Z,100293.00
2018-11-25T00:08:01.507Z,100296.00
2018-11-25T00:10:30.899Z,100285.00
2018-11-25T00:13:00.539Z,100295.00
2018-11-25T00:15:30.014Z,100291.00
2018-11-25T00:17:59.408Z,100297.00
2018-11-25T00:20:28.884Z,100299.00
2018-11-25T00:22:58.408Z,100297.00
2018-11-25T00:25:27.944Z,100300.00
2018-11-25T00:27:57.357Z,100300.00
2018-11-25T00:30:26.722Z,100301.00
2018-11-25T00:32:56.251Z,100290.00
2018-11-25T00:35:25.799Z,100305.00
2018-11-25T00:37:55.240Z,100294.00
2018-11-25T00:40:24.876Z,100291.00
2018-11-25T00:42:54.387Z,100291.00
2018-11-25T00:45:23.855Z,100285.00
2018-11-25T00:47:53.301Z,100292.00
2018-11-25T00:50:34.067Z,100291.00
2018-11-25T00:53:03.679Z,100298.00
2018-11-25T00:55:33.368Z,100296.00
2018-11-25T00:58:02.974Z,100284.00
2018-11-25T01:00:32.524Z,100293.00
2018-11-25T01:03:02.216Z,100288.00
2018-11-25T01:05:31.654Z,100287.00
2018-11-25T01:08:01.119Z,100282.00
2018-11-25T01:10:30.684Z,100295.00
2018-11-25T01:13:00.116Z,100296.00
2018-11-25T01:15:29.523Z,100295.00
2018-11-25T01:17:58.915Z,100297.00
2018-11-25T01:20:28.433Z,100310.00
2018-11-25T01:22:57.961Z,100304.00
2018-11-25T01:25:27.701Z,100296.00
2018-11-25T01:27:57.433Z,100299.00
2018-11-25T01:30:26.915Z,100298.00
2018-11-25T01:32:56.343Z,100302.00
2018-11-25T01:35:26.146Z,100298.00
2018-11-25T01:37:55.699Z,100292.00
2018-11-25T01:40:25.094Z,100302.00
2018-11-25T01:42:54.550Z,100296.00
2018-11-25T01:45:24.149Z,100289.00
2018-11-25T01:47:53.585Z,100297.00
2018-11-25T01:50:23.181Z,100289.00
2018-11-25T01:52:52.630Z,100282.00
2018-11-25T01:55:21.949Z,100288.00
2018-11-25T01:57:51.432Z,100284.00
2018-11-25T02:00:21.897Z,100285.00
2018-11-25T02:02:51.401Z,100293.00
2018-11-25T02:05:20.803Z,100295.00
2018-11-25T02:07:50.144Z,100298.00
2018-11-25T02:10:20.019Z,100281.00
2018-11-25T02:12:49.455Z,100285.00
2018-11-25T02:15:18.946Z,100286.00
2018-11-25T02:17:48.251Z,100288.00
2018-11-25T02:20:25.919Z,100273.00
2018-11-25T02:22:56.325Z,100282.00
2018-11-25T02:25:25.930Z,100279.00
2018-11-25T02:27:55.236Z,100283.00
2018-11-25T02:30:24.551Z,100274.00
2018-11-25T02:32:53.880Z,100276.00
2018-11-25T02:35:23.312Z,100273.00
2018-11-25T02:37:52.857Z,100282.00
2018-11-25T02:40:22.181Z,100270.00
2018-11-25T02:42:51.620Z,100261.00
2018-11-25T02:45:20.907Z,100265.00
2018-11-25T02:47:50.168Z,100262.00
2018-11-25T02:50:28.433Z,100267.00
2018-11-25T02:53:07.617Z,100258.00
2018-11-25T02:55:36.987Z,100257.00
2018-11-25T02:58:06.414Z,100247.00
2018-11-25T03:00:35.751Z,100256.00
2018-11-25T03:03:05.279Z,100243.00
2018-11-25T03:05:34.767Z,100248.00
2018-11-25T03:08:04.118Z,100255.00
2018-11-25T03:10:33.473Z,100247.00
2018-11-25T03:13:02.778Z,100257.00
2018-11-25T03:15:32.130Z,100258.00
2018-11-25T03:18:01.417Z,100271.00
2018-11-25T03:20:30.754Z,100253.00
2018-11-25T03:23:00.549Z,100261.00
2018-11-25T03:25:30.051Z,100267.00
2018-11-25T03:27:59.357Z,100271.00
2018-11-25T03:30:28.705Z,100280.00
2018-11-25T03:32:58.055Z,100274.00
2018-11-25T03:35:27.422Z,100273.00
2018-11-25T03:37:56.774Z,100278.00
2018-11-25T03:40:26.130Z,100266.00
2018-11-25T03:42:55.702Z,100273.00
2018-11-25T03:45:25.317Z,100268.00
2018-11-25T03:47:54.664Z,100273.00
2018-11-25T03:50:24.119Z,100272.00
2018-11-25T03:52:53.703Z,100278.00
2018-11-25T03:55:23.147Z,100279.00
2018-11-25T03:57:52.534Z,100269.00
2018-11-25T04:00:23.224Z,100265.00
2018-11-25T04:02:54.948Z,100278.00
2018-11-25T04:05:24.302Z,100271.00
2018-11-25T04:07:53.613Z,100275.00
2018-11-25T04:10:22.971Z,100279.00
2018-11-25T04:12:52.308Z,100277.00
2018-11-25T04:15:21.634Z,100268.00
2018-11-25T04:17:51.991Z,100278.00
2018-11-25T04:20:21.850Z,100276.00
2018-11-25T04:22:51.362Z,100288.00
2018-11-25T04:25:20.819Z,100281.00
2018-11-25T04:27:50.169Z,100278.00
2018-11-25T04:30:20.414Z,100280.00
2018-11-25T04:32:50.898Z,100275.00
2018-11-25T04:35:23.469Z,100277.00
2018-11-25T04:37:52.905Z,100281.00
2018-11-25T04:40:22.274Z,100280.00
2018-11-25T04:42:51.857Z,100272.00
2018-11-25T04:45:21.218Z,100278.00
2018-11-25T04:47:50.571Z,100283.00
2018-11-25T04:50:21.322Z,100286.00
2018-11-25T04:52:50.716Z,100275.00
2018-11-25T04:55:20.044Z,100284.00
2018-11-25T04:57:51.430Z,100271.00
2018-11-25T05:00:20.904Z,100268.00
2018-11-25T05:02:51.552Z,100274.00
2018-11-25T05:05:21.004Z,100271.00
2018-11-25T05:07:50.309Z,100280.00
2018-11-25T05:10:20.209Z,100266.00
2018-11-25T05:12:49.552Z,100276.00
2018-11-25T05:15:22.158Z,100276.00
2018-11-25T05:17:51.620Z,100271.00
2018-11-25T05:20:21.534Z,100272.00
2018-11-25T05:22:50.842Z,100273.00
2018-11-25T05:25:20.746Z,100272.00
2018-11-25T05:27:50.099Z,100288.00
2018-11-25T05:30:21.581Z,100288.00
2018-11-25T05:32:51.153Z,100286.00
2018-11-25T05:35:23.197Z,100287.00
2018-11-25T05:37:52.526Z,100294.00
2018-11-25T05:40:21.826Z,100279.00
2018-11-25T05:42:51.635Z,100282.00
2018-11-25T05:45:25.684Z,100283.00
2018-11-25T05:47:55.037Z,100281.00
2018-11-25T05:50:25.027Z,100282.00
2018-11-25T05:52:54.981Z,100282.00
2018-11-25T05:55:24.323Z,100285.00
2018-11-25T05:57:53.690Z,100285.00
2018-11-25T06:00:29.352Z,100289.00
2018-11-25T06:02:58.806Z,100295.00
2018-11-25T06:05:28.191Z,100295.00
2018-11-25T06:07:57.562Z,100288.00
2018-11-25T06:10:26.983Z,100296.00
2018-11-25T06:12:56.485Z,100300.00
2018-11-25T06:15:25.795Z,100297.00
2018-11-25T06:17:55.152Z,100296.00
2018-11-25T06:20:27.696Z,100306.00
2018-11-25T06:22:57.094Z,100303.00
2018-11-25T06:25:26.389Z,100304.00
2018-11-25T06:27:55.726Z,100308.00
2018-11-25T06:30:25.206Z,100320.00
2018-11-25T06:32:54.619Z,100321.00
2018-11-25T06:35:24.012Z,100309.00
2018-11-25T06:37:53.329Z,100313.00
2018-11-25T06:40:22.773Z,100320.00
2018-11-25T06:42:52.355Z,100318.00
2018-11-25T06:45:24.744Z,100321.00
2018-11-25T06:47:55.312Z,100323.00
2018-11-25T06:50:24.654Z,100321.00
2018-11-25T06:52:54.273Z,100322.00
2018-11-25T06:55:23.616Z,100330.00
2018-11-25T06:57:53.180Z,100325.00
2018-11-25T07:00:24.903Z,100324.00
2018-11-25T07:02:54.533Z,100334.00
2018-11-25T07:05:28.347Z,100322.00
2018-11-25T07:07:57.735Z,100335.00
2018-11-25T07:10:27.127Z,100332.00
2018-11-25T07:12:56.761Z,100334.00
2018-11-25T07:15:26.146Z,100320.00
2018-11-25T07:17:55.580Z,100323.00
2018-11-25T07:20:25.022Z,100318.00
2018-11-25T07:22:54.448Z,100323.00
2018-11-25T07:25:24.660Z,100330.00
2018-11-25T07:27:54.202Z,100335.00
2018-11-25T07:30:25.215Z,100322.00
2018-11-25T07:32:54.947Z,100318.00
2018-11-25T07:35:26.907Z,100318.00
2018-11-25T07:37:56.423Z,100330.00
2018-11-25T07:40:26.663Z,100319.00
2018-11-25T07:42:56.074Z,100321.00
2018-11-25T07:45:30.468Z,100323.00
2018-11-25T07:47:56.031Z,100312.00
2018-11-25T07:50:27.914Z,100335.00
2018-11-25T07:52:57.315Z,100333.00
2018-11-25T07:55:26.940Z,100340.00
2018-11-25T07:57:58.132Z,100334.00
2018-11-25T08:00:27.803Z,100344.00
2018-11-25T08:02:57.193Z,100348.00
2018-11-25T08:05:27.908Z,100351.00
2018-11-25T08:07:57.319Z,100356.00
2018-11-25T08:10:26.957Z,100354.00
2018-11-25T08:13:07.061Z,100355.00
2018-11-25T08:15:36.399Z,100351.00
2018-11-25T08:18:05.971Z,100354.00
2018-11-25T08:20:35.523Z,100356.00
2018-11-25T08:23:04.907Z,100351.00
2018-11-25T08:25:34.303Z,100361.00
2018-11-25T08:28:03.725Z,100354.00
2018-11-25T08:30:33.058Z,100353.00
2018-11-25T08:33:02.440Z,100358.00
2018-11-25T08:35:31.868Z,100355.00
2018-11-25T08:38:01.285Z,100356.00
2018-11-25T08:40:30.619Z,100356.00
2018-11-25T08:42:59.987Z,100358.00
2018-11-25T08:45:29.387Z,100359.00
2018-11-25T08:47:59.145Z,100359.00
2018-11-25T08:50:28.605Z,100364.00
2018-11-25T08:53:02.050Z,100358.00
2018-11-25T08:55:31.357Z,100349.00
2018-11-25T08:58:00.635Z,100343.00
2018-11-25T09:00:30.002Z,100335.00
2018-11-25T09:02:59.331Z,100340.00
2018-11-25T09:05:28.677Z,100332.00
2018-11-25T09:07:58.041Z,100331.00
2018-11-25T09:10:27.539Z,100325.00
2018-11-25T09:12:58.265Z,100331.00
2018-11-25T09:15:30.964Z,100333.00
2018-11-25T09:18:00.456Z,100335.00
2018-11-25T09:20:29.809Z,100323.00
2018-11-25T09:22:59.160Z,100332.00
2018-11-25T09:25:30.104Z,100335.00
2018-11-25T09:28:01.139Z,100337.00
2018-11-25T09:30:32.032Z,100341.00
2018-11-25T09:33:01.367Z,100335.00
2018-11-25T09:35:30.702Z,100347.00
2018-11-25T09:38:00.466Z,100347.00
2018-11-25T09:40:29.895Z,100345.00
2018-11-25T09:42:59.318Z,100352.00
2018-11-25T09:45:28.786Z,100358.00
2018-11-25T09:48:00.245Z,100357.00
2018-11-25T09:50:29.580Z,100348.00
2018-11-25T09:52:59.208Z,100362.00
2018-11-25T09:55:28.530Z,100363.00
2018-11-25T09:58:04.594Z,100360.00
2018-11-25T10:00:35.385Z,100359.00
2018-11-25T10:03:07.025Z,100369.00
2018-11-25T10:05:36.475Z,100357.00
2018-11-25T10:08:05.943Z,100366.00
2018-11-25T10:10:35.292Z,100365.00
2018-11-25T10:13:05.209Z,100366.00
2018-11-25T10:15:34.741Z,100357.00
2018-11-25T10:18:04.117Z,100360.00
2018-11-25T10:20:33.829Z,100365.00
2018-11-25T10:23:03.171Z,100348.00
2018-11-25T10:25:32.499Z,100359.00
2018-11-25T10:28:01.817Z,100361.00
2018-11-25T10:30:46.745Z,100356.00
2018-11-25T10:33:16.298Z,100356.00
2018-11-25T10:35:45.695Z,100354.00
2018-11-25T10:38:15.298Z,100363.00
2018-11-25T10:40:45.861Z,100369.00
2018-11-25T10:43:28.577Z,100345.00
2018-11-25T10:46:03.831Z,100342.00
2018-11-25T10:48:33.249Z,100343.00
2018-11-25T10:51:02.791Z,100341.00
2018-11-25T10:53:34.245Z,100340.00
2018-11-25T10:56:07.342Z,100335.00
2018-11-25T10:58:36.967Z,100341.00
2018-11-25T11:01:12.658Z,100350.00
2018-11-25T11:03:47.287Z,100338.00
2018-11-25T11:06:22.535Z,100339.00
2018-11-25T11:08:52.381Z,100347.00
2018-11-25T11:11:21.922Z,100344.00
2018-11-25T11:13:52.392Z,100346.00
2018-11-25T11:16:21.958Z,100341.00
2018-11-25T11:19:00.035Z,100347.00
2018-11-25T11:21:30.518Z,100347.00
2018-11-25T11:23:59.814Z,100354.00
2018-11-25T11:26:29.243Z,100348.00
2018-11-25T11:28:58.866Z,100346.00
2018-11-25T11:31:29.263Z,100343.00
2018-11-25T11:33:58.594Z,100335.00
2018-11-25T11:36:28.997Z,100335.00
2018-11-25T11:38:58.387Z,100339.00
2018-11-25T11:41:28.699Z,100338.00
2018-11-25T11:43:58.039Z,100334.00
2018-11-25T11:46:27.348Z,100337.00
2018-11-25T11:48:56.712Z,100341.00
2018-11-25T11:51:27.332Z,100333.00
2018-11-25T11:53:55.435Z,100333.00
2018-11-25T11:56:24.758Z,100334.00
2018-11-25T11:58:54.051Z,100336.00
2018-11-25T12:01:23.377Z,100330.00
2018-11-25T12:03:52.943Z,100315.00
2018-11-25T12:06:23.792Z,100324.00
2018-11-25T12:08:53.163Z,100325.00
2018-11-25T12:11:22.873Z,100316.00
2018-11-25T12:13:54.287Z,100326.00
2018-11-25T12:16:23.622Z,100332.00
2018-11-25T12:18:53.199Z,100320.00
2018-11-25T12:21:24.480Z,100320.00
2018-11-25T12:23:53.887Z,100323.00
2018-11-25T12:26:23.200Z,100319.00
2018-11-25T12:28:52.613Z,100332.00
2018-11-25T12:31:21.990Z,100315.00
2018-11-25T12:33:51.862Z,100337.00
2018-11-25T12:36:21.275Z,100333.00
2018-11-25T12:38:50.584Z,100334.00
2018-11-25T12:41:19.920Z,100334.00
2018-11-25T12:43:49.462Z,100321.00
2018-11-25T12:46:18.809Z,100321.00
2018-11-25T12:48:48.109Z,100322.00
2018-11-25T12:51:17.400Z,100313.00
2018-11-25T12:53:46.717Z,100319.00
2018-11-25T12:56:16.101Z,100312.00
2018-11-25T12:58:45.632Z,100312.00
2018-11-25T13:01:15.252Z,100315.00
2018-11-25T13:03:46.192Z,100314.00
2018-11-25T13:06:15.563Z,100307.00
2018-11-25T13:08:44.818Z,100310.00
2018-11-25T13:11:14.331Z,100311.00
2018-11-25T13:13:43.723Z,100311.00
2018-11-25T13:16:13.085Z,100306.00
2018-11-25T13:18:42.423Z,100314.00
2018-11-25T13:21:15.608Z,100310.00
2018-11-25T13:23:44.952Z,100309.00
2018-11-25T13:26:14.375Z,100302.00
2018-11-25T13:28:43.714Z,100299.00
2018-11-25T13:31:13.204Z,100306.00
2018-11-25T13:33:42.771Z,100303.00
2018-11-25T13:36:12.185Z,100306.00
2018-11-25T13:38:41.505Z,100306.00
2018-11-25T13:41:10.815Z,100302.00
2018-11-25T13:43:40.138Z,100299.00
2018-11-25T13:46:09.480Z,100308.00
2018-11-25T13:48:38.828Z,100317.00
2018-11-25T13:51:09.521Z,100308.00
2018-11-25T13:53:39.057Z,100302.00
2018-11-25T13:56:08.571Z,100311.00
2018-11-25T13:58:38.011Z,100309.00
2018-11-25T14:01:07.590Z,100302.00
2018-11-25T14:03:40.785Z,100315.00
2018-11-25T14:06:14.935Z,100300.00
2018-11-25T14:08:48.682Z,100305.00
2018-11-25T14:11:18.077Z,100304.00
2018-11-25T14:13:47.362Z,100304.00
2018-11-25T14:16:20.571Z,100308.00
2018-11-25T14:18:49.951Z,100294.00
2018-11-25T14:21:21.402Z,100300.00
2018-11-25T14:23:51.871Z,100296.00
2018-11-25T14:26:24.201Z,100308.00
2018-11-25T14:28:54.094Z,100298.00
2018-11-25T14:31:25.409Z,100302.00
2018-11-25T14:33:54.851Z,100299.00
2018-11-25T14:36:24.172Z,100299.00
2018-11-25T14:38:58.086Z,100301.00
2018-11-25T14:41:28.539Z,100307.00
2018-11-25T14:43:59.783Z,100307.00
2018-11-25T14:46:29.221Z,100304.00
2018-11-25T14:48:58.583Z,100300.00
2018-11-25T14:51:28.294Z,100296.00
2018-11-25T14:53:57.724Z,100297.00
2018-11-25T14:56:27.232Z,100291.00
2018-11-25T14:58:56.959Z,100289.00
2018-11-25T15:01:26.380Z,100295.00
2018-11-25T15:03:57.714Z,100283.00
2018-11-25T15:06:29.425Z,100283.00
2018-11-25T15:08:58.627Z,100293.00
2018-11-25T15:11:28.092Z,100282.00
2018-11-25T15:13:57.476Z,100295.00
2018-11-25T15:16:26.894Z,100290.00
2018-11-25T15:18:56.255Z,100285.00
2018-11-25T15:21:26.790Z,100286.00
2018-11-25T15:23:57.199Z,100289.00
2018-11-25T15:26:26.653Z,100306.00
2018-11-25T15:28:56.100Z,100288.00
2018-11-25T15:31:27.481Z,100292.00
2018-11-25T15:33:56.964Z,100289.00
2018-11-25T15:36:26.403Z,100289.00
2018-11-25T15:38:55.824Z,100294.00
2018-11-25T15:41:25.234Z,100299.00
2018-11-25T15:43:55.748Z,100292.00
2018-11-25T15:46:26.275Z,100297.00
2018-11-25T15:48:55.762Z,100289.00
2018-11-25T15:51:25.264Z,100290.00
2018-11-25T15:53:55.181Z,100290.00
2018-11-25T15:56:24.585Z,100288.00
2018-11-25T15:58:54.062Z,100293.00
2018-11-25T16:01:23.406Z,100291.00
2018-11-25T16:03:52.914Z,100287.00
2018-11-25T16:06:27.744Z,100306.00
2018-11-25T16:08:57.207Z,100298.00
2018-11-25T16:11:26.585Z,100288.00
2018-11-25T16:13:56.159Z,100294.00
2018-11-25T16:16:26.727Z,100294.00
2018-11-25T16:18:56.185Z,100298.00
2018-11-25T16:21:25.615Z,100299.00
2018-11-25T16:23:55.150Z,100292.00
2018-11-25T16:26:32.325Z,100295.00
2018-11-25T16:29:07.515Z,100297.00
2018-11-25T16:31:36.987Z,100297.00
2018-11-25T16:34:06.542Z,100296.00
2018-11-25T16:36:35.971Z,100295.00
2018-11-25T16:39:09.132Z,100304.00
2018-11-25T16:41:39.888Z,100297.00
2018-11-25T16:44:09.397Z,100302.00
2018-11-25T16:46:38.941Z,100300.00
2018-11-25T16:49:08.436Z,100297.00
2018-11-25T16:51:37.907Z,100308.00
2018-11-25T16:54:07.328Z,100307.00
2018-11-25T16:56:36.751Z,100303.00
2018-11-25T16:59:06.396Z,100300.00
2018-11-25T17:01:36.863Z,100305.00
2018-11-25T17:04:07.231Z,100293.00
2018-11-25T17:06:38.144Z,100310.00
2018-11-25T17:09:11.877Z,100301.00
2018-11-25T17:11:41.301Z,100309.00
2018-11-25T17:14:10.630Z,100309.00
2018-11-25T17:16:40.043Z,100298.00
2018-11-25T17:19:09.466Z,100307.00
2018-11-25T17:21:39.857Z,100310.00
2018-11-25T17:24:10.299Z,100305.00
2018-11-25T17:26:39.740Z,100301.00
2018-11-25T17:29:09.118Z,100309.00
2018-11-25T17:31:39.679Z,100311.00
2018-11-25T17:34:09.050Z,100303.00
2018-11-25T17:36:38.377Z,100309.00
2018-11-25T17:39:09.643Z,100307.00
2018-11-25T17:41:39.128Z,100308.00
2018-11-25T17:44:08.524Z,100299.00
2018-11-25T17:46:37.856Z,100303.00
2018-11-25T17:49:07.622Z,100314.00
2018-11-25T17:51:37.044Z,100307.00
2018-11-25T17:54:06.518Z,100306.00
2018-11-25T17:56:35.840Z,100304.00
2018-11-25T17:59:05.357Z,100308.00
2018-11-25T18:01:34.820Z,100318.00
2018-11-25T18:04:04.287Z,100316.00
2018-11-25T18:06:33.762Z,100301.00
2018-11-25T18:09:05.448Z,100304.00
2018-11-25T18:11:35.011Z,100304.00
2018-11-25T18:14:08.231Z,100315.00
2018-11-25T18:16:38.676Z,100322.00
2018-11-25T18:19:24.863Z,100318.00
2018-11-25T18:22:02.806Z,100318.00
2018-11-25T18:24:33.360Z,100322.00
2018-11-25T18:27:03.742Z,100324.00
2018-11-25T18:29:33.143Z,100326.00
2018-11-25T18:32:02.650Z,100334.00
2018-11-25T18:34:32.106Z,100326.00
2018-11-25T18:37:01.488Z,100335.00
2018-11-25T18:39:32.989Z,100317.00
2018-11-25T18:42:02.454Z,100318.00
2018-11-25T18:44:35.266Z,100321.00
2018-11-25T18:47:04.778Z,100331.00
2018-11-25T18:49:34.155Z,100331.00
2018-11-25T18:52:05.342Z,100338.00
2018-11-25T18:54:33.033Z,100324.00
2018-11-25T18:57:02.543Z,100308.00
2018-11-25T18:59:31.859Z,100316.00
2018-11-25T19:02:08.195Z,100317.00
2018-11-25T19:04:38.239Z,100321.00
2018-11-25T19:07:07.671Z,100330.00
2018-11-25T19:09:37.289Z,100311.00
2018-11-25T19:12:06.783Z,100311.00
2018-11-25T19:14:37.342Z,100308.00
2018-11-25T19:17:06.825Z,100320.00
2018-11-25T19:19:36.216Z,100330.00
2018-11-25T19:22:05.700Z,100325.00
2018-11-25T19:24:35.108Z,100339.00
2018-11-25T19:27:04.638Z,100339.00
2018-11-25T19:29:34.015Z,100334.00
2018-11-25T19:32:03.448Z,100336.00
2018-11-25T19:34:32.869Z,100331.00
2018-11-25T19:37:02.266Z,100344.00
2018-11-25T19:39:32.746Z,100346.00
2018-11-25T19:42:02.171Z,100351.00
2018-11-25T19:44:31.519Z,100346.00
2018-11-25T19:47:01.910Z,100357.00
2018-11-25T19:49:31.277Z,100353.00
2018-11-25T19:52:00.630Z,100352.00
2018-11-25T19:54:30.006Z,100347.00
2018-11-25T19:56:59.331Z,100352.00
2018-11-25T19:59:28.847Z,100358.00
2018-11-25T20:01:58.171Z,100357.00
2018-11-25T20:04:28.618Z,100343.00
2018-11-25T20:06:57.929Z,100340.00
2018-11-25T20:09:30.441Z,100341.00
2018-11-25T20:11:59.992Z,100339.00
2018-11-25T20:14:29.350Z,100338.00
2018-11-25T20:17:03.869Z,100334.00
2018-11-25T20:19:33.236Z,100330.00
2018-11-25T20:22:07.697Z,100335.00
2018-11-25T20:24:42.773Z,100318.00
2018-11-25T20:27:17.245Z,100322.00
2018-11-25T20:29:46.650Z,100332.00
2018-11-25T20:32:21.421Z,100336.00
2018-11-25T20:34:50.738Z,100334.00
2018-11-25T20:37:26.775Z,100319.00
2018-11-25T20:39:49.663Z,100316.00
2018-11-25T20:42:19.138Z,100323.00
2018-11-25T20:44:49.570Z,100322.00
2018-11-25T20:47:18.920Z,100337.00
2018-11-25T20:49:48.891Z,100307.00
2018-11-25T20:52:24.540Z,100316.00
2018-11-25T20:54:54.024Z,100310.00
2018-11-25T20:57:23.552Z,100310.00
2018-11-25T20:59:53.115Z,100314.00
2018-11-25T21:02:28.905Z,100322.00
2018-11-25T21:04:52.857Z,100335.00
2018-11-25T21:07:22.266Z,100316.00
2018-11-25T21:09:52.116Z,100321.00
2018-11-25T21:12:22.471Z,100330.00
2018-11-25T21:14:51.905Z,100337.00
2018-11-25T21:17:23.605Z,100337.00
2018-11-25T21:19:53.092Z,100336.00
2018-11-25T21:22:22.605Z,100336.00
2018-11-25T21:24:52.052Z,100337.00
2018-11-25T21:27:21.443Z,100352.00
2018-11-25T21:29:50.782Z,100346.00
2018-11-25T21:32:20.093Z,100349.00
2018-11-25T21:34:50.541Z,100353.00
2018-11-25T21:37:24.109Z,100343.00
2018-11-25T21:39:53.640Z,100357.00
2018-11-25T21:42:23.064Z,100353.00
2018-11-25T21:44:55.098Z,100350.00
2018-11-25T21:47:24.907Z,100344.00
2018-11-25T21:49:55.486Z,100340.00
2018-11-25T21:52:28.417Z,100345.00
2018-11-25T21:54:57.803Z,100338.00
2018-11-25T21:57:39.310Z,100340.00
2018-11-25T22:00:18.427Z,100340.00
2018-11-25T22:02:47.939Z,100341.00
2018-11-25T22:05:17.348Z,100344.00
2018-11-25T22:07:46.773Z,100339.00
2018-11-25T22:10:19.048Z,100341.00
2018-11-25T22:12:48.779Z,100319.00
2018-11-25T22:15:20.848Z,100326.00
2018-11-25T22:17:50.227Z,100326.00
2018-11-25T22:20:20.524Z,100334.00
2018-11-25T22:22:50.023Z,100342.00
2018-11-25T22:25:20.864Z,100338.00
2018-11-25T22:27:50.811Z,100339.00
2018-11-25T22:30:24.306Z,100348.00
2018-11-25T22:32:54.803Z,100335.00
2018-11-25T22:35:24.561Z,100347.00
2018-11-25T22:37:53.979Z,100352.00
2018-11-25T22:40:23.478Z,100343.00
2018-11-25T22:42:52.843Z,100355.00
2018-11-25T22:45:23.608Z,100352.00
2018-11-25T22:47:54.085Z,100352.00
2018-11-25T22:50:27.594Z,100354.00
2018-11-25T22:52:52.956Z,100359.00
2018-11-25T22:55:25.965Z,100365.00
2018-11-25T22:57:55.554Z,100373.00
2018-11-25T23:00:32.508Z,100370.00
2018-11-25T23:03:01.983Z,100365.00
2018-11-25T23:05:48.434Z,100364.00
2018-11-25T23:08:17.918Z,100356.00
2018-11-25T23:10:47.317Z,100369.00
2018-11-25T23:13:16.761Z,100369.00
2018-11-25T23:15:46.062Z,100367.00
2018-11-25T23:18:15.442Z,100361.00
2018-11-25T23:20:44.907Z,100364.00
2018-11-25T23:23:14.271Z,100372.00
2018-11-25T23:25:43.552Z,100375.00
2018-11-25T23:28:12.944Z,100375.00
2018-11-25T23:30:42.238Z,100369.00
2018-11-25T23:33:11.584Z,100361.00
2018-11-25T23:35:40.878Z,100359.00
2018-11-25T23:38:10.214Z,100360.00
2018-11-25T23:40:39.570Z,100358.00
2018-11-25T23:43:09.032Z,100360.00
2018-11-25T23:45:38.413Z,100355.00
2018-11-25T23:48:07.772Z,100355.00
2018-11-25T23:50:37.215Z,100356.00
2018-11-25T23:53:07.160Z,100357.00
2018-11-25T23:55:36.495Z,100359.00
2018-11-25T23:58:05.957Z,100358.00
